sensor_id;sensor_type;location;lat;lon;timestamp;temperature;humidity
74940;HTU21D;63505;45.226;37.908;2023-05-10T00:00:26;10.00;87.96
74940;HTU21D;63505;45.226;37.908;2023-05-10T00:02:52;9.98;87.97
74940;HTU21D;63505;45.226;37.908;2023-05-10T00:05:18;10.00;87.96
74940;HTU21D;63505;45.226;37.908;2023-05-10T00:07:44;9.98;87.97
74940;HTU21D;63505;45.226;37.908;2023-05-10T00:10:11;9.97;87.97
74940;HTU21D;63505;45.226;37.908;2023-05-10T00:12:37;9.98;87.99
74940;HTU21D;63505;45.226;37.908;2023-05-10T00:15:03;9.96;87.97
74940;HTU21D;63505;45.226;37.908;2023-05-10T00:17:29;9.97;87.96
74940;HTU21D;63505;45.226;37.908;2023-05-10T00:19:55;9.96;87.96
74940;HTU21D;63505;45.226;37.908;2023-05-10T00:22:21;9.95;87.96
74940;HTU21D;63505;45.226;37.908;2023-05-10T00:24:47;9.94;87.97
74940;HTU21D;63505;45.226;37.908;2023-05-10T00:27:13;9.94;87.98
74940;HTU21D;63505;45.226;37.908;2023-05-10T00:29:39;9.94;87.98
74940;HTU21D;63505;45.226;37.908;2023-05-10T00:32:05;9.94;87.99
74940;HTU21D;63505;45.226;37.908;2023-05-10T00:34:31;9.92;87.96
74940;HTU21D;63505;45.226;37.908;2023-05-10T00:36:57;9.90;88.01
74940;HTU21D;63505;45.226;37.908;2023-05-10T00:39:22;9.89;88.01
74940;HTU21D;63505;45.226;37.908;2023-05-10T00:41:48;9.88;88.01
74940;HTU21D;63505;45.226;37.908;2023-05-10T00:44:15;9.88;88.00
74940;HTU21D;63505;45.226;37.908;2023-05-10T00:46:41;9.88;87.98
74940;HTU21D;63505;45.226;37.908;2023-05-10T00:49:07;9.83;87.96
74940;HTU21D;63505;45.226;37.908;2023-05-10T00:51:33;9.80;87.99
74940;HTU21D;63505;45.226;37.908;2023-05-10T00:53:59;9.78;88.00
74940;HTU21D;63505;45.226;37.908;2023-05-10T00:56:26;9.78;88.02
74940;HTU21D;63505;45.226;37.908;2023-05-10T00:58:54;9.77;88.00
74940;HTU21D;63505;45.226;37.908;2023-05-10T01:01:20;9.76;88.02
74940;HTU21D;63505;45.226;37.908;2023-05-10T01:03:46;9.75;88.02
74940;HTU21D;63505;45.226;37.908;2023-05-10T01:06:14;9.74;88.04
74940;HTU21D;63505;45.226;37.908;2023-05-10T01:08:40;9.72;88.04
74940;HTU21D;63505;45.226;37.908;2023-05-10T01:11:06;9.72;88.02
74940;HTU21D;63505;45.226;37.908;2023-05-10T01:13:38;9.72;88.02
74940;HTU21D;63505;45.226;37.908;2023-05-10T01:16:05;9.74;88.00
74940;HTU21D;63505;45.226;37.908;2023-05-10T01:18:37;9.72;87.97
74940;HTU21D;63505;45.226;37.908;2023-05-10T01:30:08;9.69;87.96
74940;HTU21D;63505;45.226;37.908;2023-05-10T01:33:18;9.65;87.95
74940;HTU21D;63505;45.226;37.908;2023-05-10T01:46:48;9.69;87.90
74940;HTU21D;63505;45.226;37.908;2023-05-10T01:49:25;9.70;87.86
74940;HTU21D;63505;45.226;37.908;2023-05-10T01:51:54;9.70;87.86
74940;HTU21D;63505;45.226;37.908;2023-05-10T01:54:22;9.69;87.87
74940;HTU21D;63505;45.226;37.908;2023-05-10T01:56:55;9.72;87.87
74940;HTU21D;63505;45.226;37.908;2023-05-10T01:59:21;9.75;87.86
74940;HTU21D;63505;45.226;37.908;2023-05-10T02:01:48;9.76;87.83
74940;HTU21D;63505;45.226;37.908;2023-05-10T02:04:17;9.77;87.83
74940;HTU21D;63505;45.226;37.908;2023-05-10T02:06:46;9.77;87.80
74940;HTU21D;63505;45.226;37.908;2023-05-10T02:09:14;9.76;87.82
74940;HTU21D;63505;45.226;37.908;2023-05-10T02:11:43;9.75;87.81
74940;HTU21D;63505;45.226;37.908;2023-05-10T02:14:11;9.74;87.80
74940;HTU21D;63505;45.226;37.908;2023-05-10T02:16:38;9.69;87.79
74940;HTU21D;63505;45.226;37.908;2023-05-10T02:19:05;9.61;87.85
74940;HTU21D;63505;45.226;37.908;2023-05-10T02:21:33;9.56;87.93
74940;HTU21D;63505;45.226;37.908;2023-05-10T02:24:01;9.51;87.98
74940;HTU21D;63505;45.226;37.908;2023-05-10T02:26:28;9.47;88.03
74940;HTU21D;63505;45.226;37.908;2023-05-10T02:28:56;9.44;88.09
74940;HTU21D;63505;45.226;37.908;2023-05-10T02:31:23;9.41;88.10
74940;HTU21D;63505;45.226;37.908;2023-05-10T02:33:49;9.39;88.07
74940;HTU21D;63505;45.226;37.908;2023-05-10T02:36:17;9.35;88.11
74940;HTU21D;63505;45.226;37.908;2023-05-10T02:38:45;9.30;88.15
74940;HTU21D;63505;45.226;37.908;2023-05-10T02:41:13;9.26;88.14
74940;HTU21D;63505;45.226;37.908;2023-05-10T02:43:40;9.27;88.21
74940;HTU21D;63505;45.226;37.908;2023-05-10T02:46:06;9.30;88.22
74940;HTU21D;63505;45.226;37.908;2023-05-10T02:48:34;9.31;88.18
74940;HTU21D;63505;45.226;37.908;2023-05-10T02:51:03;9.36;88.15
74940;HTU21D;63505;45.226;37.908;2023-05-10T02:53:31;9.38;88.10
74940;HTU21D;63505;45.226;37.908;2023-05-10T02:56:05;9.41;88.06
74940;HTU21D;63505;45.226;37.908;2023-05-10T02:58:34;9.46;88.02
74940;HTU21D;63505;45.226;37.908;2023-05-10T03:01:00;9.51;87.98
74940;HTU21D;63505;45.226;37.908;2023-05-10T03:03:26;9.54;87.92
74940;HTU21D;63505;45.226;37.908;2023-05-10T03:05:52;9.57;87.86
74940;HTU21D;63505;45.226;37.908;2023-05-10T03:08:22;9.61;87.83
74940;HTU21D;63505;45.226;37.908;2023-05-10T03:11:11;9.62;87.81
74940;HTU21D;63505;45.226;37.908;2023-05-10T03:16:46;9.69;87.72
74940;HTU21D;63505;45.226;37.908;2023-05-10T03:19:26;9.67;87.67
74940;HTU21D;63505;45.226;37.908;2023-05-10T03:21:54;9.68;87.70
74940;HTU21D;63505;45.226;37.908;2023-05-10T03:24:27;9.68;87.70
74940;HTU21D;63505;45.226;37.908;2023-05-10T03:26:56;9.67;87.75
74940;HTU21D;63505;45.226;37.908;2023-05-10T03:29:26;9.69;87.77
74940;HTU21D;63505;45.226;37.908;2023-05-10T03:31:52;9.74;87.80
74940;HTU21D;63505;45.226;37.908;2023-05-10T03:34:23;9.75;87.79
74940;HTU21D;63505;45.226;37.908;2023-05-10T03:36:51;9.80;87.79
74940;HTU21D;63505;45.226;37.908;2023-05-10T03:39:16;9.85;87.73
74940;HTU21D;63505;45.226;37.908;2023-05-10T03:41:49;9.92;87.73
74940;HTU21D;63505;45.226;37.908;2023-05-10T03:44:14;9.98;87.69
74940;HTU21D;63505;45.226;37.908;2023-05-10T03:46:40;10.05;87.64
74940;HTU21D;63505;45.226;37.908;2023-05-10T03:49:07;10.07;87.57
74940;HTU21D;63505;45.226;37.908;2023-05-10T03:51:33;10.14;87.61
74940;HTU21D;63505;45.226;37.908;2023-05-10T03:53:59;10.21;87.55
74940;HTU21D;63505;45.226;37.908;2023-05-10T03:56:25;10.26;87.52
74940;HTU21D;63505;45.226;37.908;2023-05-10T03:58:51;10.26;87.51
74940;HTU21D;63505;45.226;37.908;2023-05-10T04:01:17;10.24;87.47
74940;HTU21D;63505;45.226;37.908;2023-05-10T04:03:43;10.22;87.56
74940;HTU21D;63505;45.226;37.908;2023-05-10T04:06:09;10.20;87.62
74940;HTU21D;63505;45.226;37.908;2023-05-10T04:08:37;10.15;87.64
74940;HTU21D;63505;45.226;37.908;2023-05-10T04:11:08;10.12;87.70
74940;HTU21D;63505;45.226;37.908;2023-05-10T04:13:34;10.09;87.74
74940;HTU21D;63505;45.226;37.908;2023-05-10T04:16:00;10.07;87.77
74940;HTU21D;63505;45.226;37.908;2023-05-10T04:18:26;10.07;87.80
74940;HTU21D;63505;45.226;37.908;2023-05-10T04:20:52;10.07;87.81
74940;HTU21D;63505;45.226;37.908;2023-05-10T04:23:18;10.07;87.78
74940;HTU21D;63505;45.226;37.908;2023-05-10T04:25:44;10.06;87.82
74940;HTU21D;63505;45.226;37.908;2023-05-10T04:28:10;10.08;87.83
74940;HTU21D;63505;45.226;37.908;2023-05-10T04:30:36;10.14;87.80
74940;HTU21D;63505;45.226;37.908;2023-05-10T04:33:01;10.16;87.75
74940;HTU21D;63505;45.226;37.908;2023-05-10T04:35:28;10.21;87.69
74940;HTU21D;63505;45.226;37.908;2023-05-10T04:37:54;10.24;87.69
74940;HTU21D;63505;45.226;37.908;2023-05-10T04:40:20;10.34;87.70
74940;HTU21D;63505;45.226;37.908;2023-05-10T04:42:46;10.43;87.63
74940;HTU21D;63505;45.226;37.908;2023-05-10T04:45:12;10.52;87.56
74940;HTU21D;63505;45.226;37.908;2023-05-10T04:47:40;10.62;87.45
74940;HTU21D;63505;45.226;37.908;2023-05-10T04:50:06;10.69;87.35
74940;HTU21D;63505;45.226;37.908;2023-05-10T04:52:32;10.73;87.28
74940;HTU21D;63505;45.226;37.908;2023-05-10T04:54:58;10.78;87.25
74940;HTU21D;63505;45.226;37.908;2023-05-10T04:57:24;10.85;87.20
74940;HTU21D;63505;45.226;37.908;2023-05-10T04:59:50;10.88;87.20
74940;HTU21D;63505;45.226;37.908;2023-05-10T05:02:16;10.95;87.15
74940;HTU21D;63505;45.226;37.908;2023-05-10T05:04:42;10.99;87.11
74940;HTU21D;63505;45.226;37.908;2023-05-10T05:07:08;11.04;87.08
74940;HTU21D;63505;45.226;37.908;2023-05-10T05:09:34;11.11;87.05
74940;HTU21D;63505;45.226;37.908;2023-05-10T05:12:00;11.17;86.99
74940;HTU21D;63505;45.226;37.908;2023-05-10T05:14:26;11.24;86.93
74940;HTU21D;63505;45.226;37.908;2023-05-10T05:16:52;11.29;86.95
74940;HTU21D;63505;45.226;37.908;2023-05-10T05:19:18;11.45;86.94
74940;HTU21D;63505;45.226;37.908;2023-05-10T05:21:44;11.67;86.82
74940;HTU21D;63505;45.226;37.908;2023-05-10T05:24:10;11.91;86.63
74940;HTU21D;63505;45.226;37.908;2023-05-10T05:26:38;12.10;86.43
74940;HTU21D;63505;45.226;37.908;2023-05-10T05:29:04;12.22;86.31
74940;HTU21D;63505;45.226;37.908;2023-05-10T05:31:30;12.32;86.17
74940;HTU21D;63505;45.226;37.908;2023-05-10T05:33:56;12.37;86.07
74940;HTU21D;63505;45.226;37.908;2023-05-10T05:36:22;12.37;86.09
74940;HTU21D;63505;45.226;37.908;2023-05-10T05:38:48;12.33;86.09
74940;HTU21D;63505;45.226;37.908;2023-05-10T05:41:13;12.31;86.18
74940;HTU21D;63505;45.226;37.908;2023-05-10T05:43:39;12.31;86.17
74940;HTU21D;63505;45.226;37.908;2023-05-10T05:46:05;12.42;86.16
74940;HTU21D;63505;45.226;37.908;2023-05-10T05:48:31;12.53;85.88
74940;HTU21D;63505;45.226;37.908;2023-05-10T05:50:57;12.59;85.77
74940;HTU21D;63505;45.226;37.908;2023-05-10T05:53:25;12.66;85.73
74940;HTU21D;63505;45.226;37.908;2023-05-10T05:55:54;12.90;85.64
74940;HTU21D;63505;45.226;37.908;2023-05-10T05:58:21;13.20;85.39
74940;HTU21D;63505;45.226;37.908;2023-05-10T06:00:47;13.41;85.03
74940;HTU21D;63505;45.226;37.908;2023-05-10T06:03:13;13.54;84.84
74940;HTU21D;63505;45.226;37.908;2023-05-10T06:05:39;13.68;84.54
74940;HTU21D;63505;45.226;37.908;2023-05-10T06:08:05;13.71;84.35
74940;HTU21D;63505;45.226;37.908;2023-05-10T06:10:31;13.73;84.28
74940;HTU21D;63505;45.226;37.908;2023-05-10T06:12:57;13.81;84.10
74940;HTU21D;63505;45.226;37.908;2023-05-10T06:15:23;13.84;83.98
74940;HTU21D;63505;45.226;37.908;2023-05-10T06:17:49;13.82;83.74
74940;HTU21D;63505;45.226;37.908;2023-05-10T06:20:15;13.73;83.82
74940;HTU21D;63505;45.226;37.908;2023-05-10T06:22:41;13.73;83.80
74940;HTU21D;63505;45.226;37.908;2023-05-10T06:25:08;13.79;83.68
74940;HTU21D;63505;45.226;37.908;2023-05-10T06:27:34;13.77;83.47
74940;HTU21D;63505;45.226;37.908;2023-05-10T06:30:00;13.66;83.39
74940;HTU21D;63505;45.226;37.908;2023-05-10T06:32:26;13.62;83.41
74940;HTU21D;63505;45.226;37.908;2023-05-10T06:34:51;13.67;83.26
74940;HTU21D;63505;45.226;37.908;2023-05-10T06:37:17;13.80;83.15
74940;HTU21D;63505;45.226;37.908;2023-05-10T06:39:43;13.97;82.79
74940;HTU21D;63505;45.226;37.908;2023-05-10T06:42:09;14.10;82.50
74940;HTU21D;63505;45.226;37.908;2023-05-10T06:44:35;14.18;82.13
74940;HTU21D;63505;45.226;37.908;2023-05-10T06:47:01;14.13;81.99
74940;HTU21D;63505;45.226;37.908;2023-05-10T06:49:27;14.04;81.92
74940;HTU21D;63505;45.226;37.908;2023-05-10T06:51:53;13.98;81.97
74940;HTU21D;63505;45.226;37.908;2023-05-10T06:54:19;13.95;81.92
74940;HTU21D;63505;45.226;37.908;2023-05-10T06:56:44;13.88;81.84
74940;HTU21D;63505;45.226;37.908;2023-05-10T06:59:10;13.84;81.83
74940;HTU21D;63505;45.226;37.908;2023-05-10T07:01:36;13.83;81.75
74940;HTU21D;63505;45.226;37.908;2023-05-10T07:04:02;13.92;81.68
74940;HTU21D;63505;45.226;37.908;2023-05-10T07:06:28;14.05;81.43
74940;HTU21D;63505;45.226;37.908;2023-05-10T07:08:54;14.20;81.12
74940;HTU21D;63505;45.226;37.908;2023-05-10T07:11:20;14.36;80.88
74940;HTU21D;63505;45.226;37.908;2023-05-10T07:13:46;14.45;80.58
74940;HTU21D;63505;45.226;37.908;2023-05-10T07:16:12;14.56;80.30
74940;HTU21D;63505;45.226;37.908;2023-05-10T07:18:38;14.73;80.03
74940;HTU21D;63505;45.226;37.908;2023-05-10T07:21:04;14.85;79.74
74940;HTU21D;63505;45.226;37.908;2023-05-10T07:23:29;14.80;79.56
74940;HTU21D;63505;45.226;37.908;2023-05-10T07:25:56;14.71;79.45
74940;HTU21D;63505;45.226;37.908;2023-05-10T07:28:23;14.59;79.34
74940;HTU21D;63505;45.226;37.908;2023-05-10T07:30:49;14.47;79.36
74940;HTU21D;63505;45.226;37.908;2023-05-10T07:33:15;14.33;79.34
74940;HTU21D;63505;45.226;37.908;2023-05-10T07:35:42;14.20;79.35
74940;HTU21D;63505;45.226;37.908;2023-05-10T07:38:08;14.05;79.33
74940;HTU21D;63505;45.226;37.908;2023-05-10T07:40:34;13.96;79.31
74940;HTU21D;63505;45.226;37.908;2023-05-10T07:43:00;13.96;79.27
74940;HTU21D;63505;45.226;37.908;2023-05-10T07:45:27;14.17;79.16
74940;HTU21D;63505;45.226;37.908;2023-05-10T07:47:53;14.41;78.87
74940;HTU21D;63505;45.226;37.908;2023-05-10T07:50:19;14.68;78.63
74940;HTU21D;63505;45.226;37.908;2023-05-10T07:52:47;15.19;78.21
74940;HTU21D;63505;45.226;37.908;2023-05-10T07:55:13;15.77;77.35
74940;HTU21D;63505;45.226;37.908;2023-05-10T07:57:39;16.25;76.45
74940;HTU21D;63505;45.226;37.908;2023-05-10T08:00:06;16.56;75.92
74940;HTU21D;63505;45.226;37.908;2023-05-10T08:02:38;16.95;75.65
74940;HTU21D;63505;45.226;37.908;2023-05-10T08:05:05;17.38;75.03
74940;HTU21D;63505;45.226;37.908;2023-05-10T08:07:31;17.70;74.59
74940;HTU21D;63505;45.226;37.908;2023-05-10T08:09:57;18.06;74.11
74940;HTU21D;63505;45.226;37.908;2023-05-10T08:12:22;18.43;73.22
74940;HTU21D;63505;45.226;37.908;2023-05-10T08:14:48;18.73;72.32
74940;HTU21D;63505;45.226;37.908;2023-05-10T08:17:14;18.89;71.36
74940;HTU21D;63505;45.226;37.908;2023-05-10T08:19:40;18.96;70.73
74940;HTU21D;63505;45.226;37.908;2023-05-10T08:22:06;19.09;70.32
74940;HTU21D;63505;45.226;37.908;2023-05-10T08:24:32;19.17;70.01
74940;HTU21D;63505;45.226;37.908;2023-05-10T08:26:58;19.37;69.49
74940;HTU21D;63505;45.226;37.908;2023-05-10T08:29:23;19.54;68.66
74940;HTU21D;63505;45.226;37.908;2023-05-10T08:31:49;19.46;67.96
74940;HTU21D;63505;45.226;37.908;2023-05-10T08:34:15;19.14;68.33
74940;HTU21D;63505;45.226;37.908;2023-05-10T08:36:41;19.05;68.39
74940;HTU21D;63505;45.226;37.908;2023-05-10T08:39:06;19.06;68.03
74940;HTU21D;63505;45.226;37.908;2023-05-10T08:41:33;18.95;68.22
74940;HTU21D;63505;45.226;37.908;2023-05-10T08:44:04;18.87;67.74
74940;HTU21D;63505;45.226;37.908;2023-05-10T08:46:31;18.83;66.80
74940;HTU21D;63505;45.226;37.908;2023-05-10T08:49:02;18.62;66.59
74940;HTU21D;63505;45.226;37.908;2023-05-10T08:51:35;18.52;66.30
74940;HTU21D;63505;45.226;37.908;2023-05-10T08:54:03;18.50;66.11
74940;HTU21D;63505;45.226;37.908;2023-05-10T08:56:29;18.55;65.62
74940;HTU21D;63505;45.226;37.908;2023-05-10T08:58:56;18.56;65.32
74940;HTU21D;63505;45.226;37.908;2023-05-10T09:01:22;18.46;64.90
74940;HTU21D;63505;45.226;37.908;2023-05-10T09:03:49;18.35;64.50
74940;HTU21D;63505;45.226;37.908;2023-05-10T09:06:16;18.04;64.31
74940;HTU21D;63505;45.226;37.908;2023-05-10T09:08:42;17.73;64.63
74940;HTU21D;63505;45.226;37.908;2023-05-10T09:11:09;17.97;64.60
74940;HTU21D;63505;45.226;37.908;2023-05-10T09:13:36;18.51;64.05
74940;HTU21D;63505;45.226;37.908;2023-05-10T09:16:03;18.95;63.40
74940;HTU21D;63505;45.226;37.908;2023-05-10T09:18:29;19.07;62.89
74940;HTU21D;63505;45.226;37.908;2023-05-10T09:20:55;19.05;63.06
74940;HTU21D;63505;45.226;37.908;2023-05-10T09:23:21;19.18;63.02
74940;HTU21D;63505;45.226;37.908;2023-05-10T09:25:47;19.57;62.63
74940;HTU21D;63505;45.226;37.908;2023-05-10T09:28:13;19.85;62.09
74940;HTU21D;63505;45.226;37.908;2023-05-10T09:30:38;19.89;61.57
74940;HTU21D;63505;45.226;37.908;2023-05-10T09:33:05;19.97;61.44
74940;HTU21D;63505;45.226;37.908;2023-05-10T09:35:32;20.11;60.67
74940;HTU21D;63505;45.226;37.908;2023-05-10T09:38:04;20.20;60.42
74940;HTU21D;63505;45.226;37.908;2023-05-10T09:40:30;20.27;60.03
74940;HTU21D;63505;45.226;37.908;2023-05-10T09:42:57;20.00;60.35
74940;HTU21D;63505;45.226;37.908;2023-05-10T09:45:28;19.84;60.60
74940;HTU21D;63505;45.226;37.908;2023-05-10T09:47:55;19.77;60.25
74940;HTU21D;63505;45.226;37.908;2023-05-10T09:50:21;19.77;59.96
74940;HTU21D;63505;45.226;37.908;2023-05-10T09:55:23;20.00;59.94
74940;HTU21D;63505;45.226;37.908;2023-05-10T09:57:58;20.18;59.17
74940;HTU21D;63505;45.226;37.908;2023-05-10T10:00:25;20.18;58.84
74940;HTU21D;63505;45.226;37.908;2023-05-10T10:02:56;20.16;58.49
74940;HTU21D;63505;45.226;37.908;2023-05-10T10:05:32;20.15;58.60
74940;HTU21D;63505;45.226;37.908;2023-05-10T10:08:00;19.86;58.75
74940;HTU21D;63505;45.226;37.908;2023-05-10T10:10:27;19.29;58.85
74940;HTU21D;63505;45.226;37.908;2023-05-10T10:12:54;18.78;59.25
74940;HTU21D;63505;45.226;37.908;2023-05-10T10:15:23;18.30;59.79
74940;HTU21D;63505;45.226;37.908;2023-05-10T10:17:51;17.99;60.17
74940;HTU21D;63505;45.226;37.908;2023-05-10T10:20:18;17.67;60.26
74940;HTU21D;63505;45.226;37.908;2023-05-10T10:22:45;17.34;60.53
74940;HTU21D;63505;45.226;37.908;2023-05-10T10:25:15;17.16;60.76
74940;HTU21D;63505;45.226;37.908;2023-05-10T10:30:35;17.07;60.86
74940;HTU21D;63505;45.226;37.908;2023-05-10T10:35:54;16.93;61.04
74940;HTU21D;63505;45.226;37.908;2023-05-10T10:38:21;16.77;60.96
74940;HTU21D;63505;45.226;37.908;2023-05-10T10:40:48;16.62;61.17
74940;HTU21D;63505;45.226;37.908;2023-05-10T10:43:25;16.61;61.34
74940;HTU21D;63505;45.226;37.908;2023-05-10T10:46:16;17.02;61.16
74940;HTU21D;63505;45.226;37.908;2023-05-10T10:49:08;17.80;60.35
74940;HTU21D;63505;45.226;37.908;2023-05-10T10:54:50;18.97;58.52
74940;HTU21D;63505;45.226;37.908;2023-05-10T10:57:18;19.32;58.04
74940;HTU21D;63505;45.226;37.908;2023-05-10T10:59:44;19.70;57.80
74940;HTU21D;63505;45.226;37.908;2023-05-10T11:02:34;20.12;57.38
74940;HTU21D;63505;45.226;37.908;2023-05-10T11:07:57;20.06;56.96
74940;HTU21D;63505;45.226;37.908;2023-05-10T11:10:25;19.88;57.08
74940;HTU21D;63505;45.226;37.908;2023-05-10T11:13:04;19.77;57.00
74940;HTU21D;63505;45.226;37.908;2023-05-10T11:15:31;19.55;57.49
74940;HTU21D;63505;45.226;37.908;2023-05-10T11:17:57;19.30;57.76
74940;HTU21D;63505;45.226;37.908;2023-05-10T11:20:27;19.02;57.85
74940;HTU21D;63505;45.226;37.908;2023-05-10T11:23:11;18.56;57.87
74940;HTU21D;63505;45.226;37.908;2023-05-10T11:25:45;18.13;58.51
74940;HTU21D;63505;45.226;37.908;2023-05-10T11:28:12;17.92;58.83
74940;HTU21D;63505;45.226;37.908;2023-05-10T11:30:39;17.77;59.12
74940;HTU21D;63505;45.226;37.908;2023-05-10T11:33:06;17.74;59.38
74940;HTU21D;63505;45.226;37.908;2023-05-10T11:35:40;17.98;59.07
74940;HTU21D;63505;45.226;37.908;2023-05-10T11:38:08;18.28;58.25
74940;HTU21D;63505;45.226;37.908;2023-05-10T11:40:35;18.79;57.66
74940;HTU21D;63505;45.226;37.908;2023-05-10T11:43:02;19.22;57.16
74940;HTU21D;63505;45.226;37.908;2023-05-10T11:45:29;19.65;56.53
74940;HTU21D;63505;45.226;37.908;2023-05-10T11:47:57;19.99;56.17
74940;HTU21D;63505;45.226;37.908;2023-05-10T11:50:23;20.25;55.45
74940;HTU21D;63505;45.226;37.908;2023-05-10T11:52:52;20.42;55.04
74940;HTU21D;63505;45.226;37.908;2023-05-10T11:55:19;20.32;54.91
74940;HTU21D;63505;45.226;37.908;2023-05-10T11:57:45;20.37;54.94
74940;HTU21D;63505;45.226;37.908;2023-05-10T12:00:12;20.63;55.00
74940;HTU21D;63505;45.226;37.908;2023-05-10T12:02:39;20.66;54.97
74940;HTU21D;63505;45.226;37.908;2023-05-10T12:05:05;20.41;54.99
74940;HTU21D;63505;45.226;37.908;2023-05-10T12:07:32;20.13;55.23
74940;HTU21D;63505;45.226;37.908;2023-05-10T12:10:10;19.73;55.33
74940;HTU21D;63505;45.226;37.908;2023-05-10T12:12:41;19.22;56.04
74940;HTU21D;63505;45.226;37.908;2023-05-10T12:15:25;19.14;56.00
74940;HTU21D;63505;45.226;37.908;2023-05-10T12:17:53;19.39;55.58
74940;HTU21D;63505;45.226;37.908;2023-05-10T12:20:23;19.76;54.87
74940;HTU21D;63505;45.226;37.908;2023-05-10T12:22:55;19.95;54.65
74940;HTU21D;63505;45.226;37.908;2023-05-10T12:25:23;20.09;54.29
74940;HTU21D;63505;45.226;37.908;2023-05-10T12:27:55;20.24;53.81
74940;HTU21D;63505;45.226;37.908;2023-05-10T12:32:48;19.96;53.57
74940;HTU21D;63505;45.226;37.908;2023-05-10T12:35:14;20.01;53.71
74940;HTU21D;63505;45.226;37.908;2023-05-10T12:37:41;20.20;53.30
74940;HTU21D;63505;45.226;37.908;2023-05-10T12:40:08;20.34;53.08
74940;HTU21D;63505;45.226;37.908;2023-05-10T12:42:35;20.29;52.86
74940;HTU21D;63505;45.226;37.908;2023-05-10T12:45:02;20.39;52.56
74940;HTU21D;63505;45.226;37.908;2023-05-10T12:47:29;20.54;52.36
74940;HTU21D;63505;45.226;37.908;2023-05-10T12:49:55;20.70;51.93
74940;HTU21D;63505;45.226;37.908;2023-05-10T12:52:21;20.84;51.86
74940;HTU21D;63505;45.226;37.908;2023-05-10T12:54:47;20.99;51.67
74940;HTU21D;63505;45.226;37.908;2023-05-10T12:57:13;21.15;51.41
74940;HTU21D;63505;45.226;37.908;2023-05-10T12:59:39;21.21;51.58
74940;HTU21D;63505;45.226;37.908;2023-05-10T13:02:06;20.96;51.80
74940;HTU21D;63505;45.226;37.908;2023-05-10T13:04:32;20.56;51.94
74940;HTU21D;63505;45.226;37.908;2023-05-10T13:06:58;20.18;52.55
74940;HTU21D;63505;45.226;37.908;2023-05-10T13:09:25;19.97;52.87
74940;HTU21D;63505;45.226;37.908;2023-05-10T13:11:51;19.75;52.94
74940;HTU21D;63505;45.226;37.908;2023-05-10T13:14:19;19.39;53.24
74940;HTU21D;63505;45.226;37.908;2023-05-10T13:16:46;19.01;53.68
74940;HTU21D;63505;45.226;37.908;2023-05-10T13:19:13;18.80;53.72
74940;HTU21D;63505;45.226;37.908;2023-05-10T13:21:39;18.74;53.62
74940;HTU21D;63505;45.226;37.908;2023-05-10T13:24:07;18.68;53.72
74940;HTU21D;63505;45.226;37.908;2023-05-10T13:26:33;18.54;54.03
74940;HTU21D;63505;45.226;37.908;2023-05-10T13:28:59;18.35;54.16
74940;HTU21D;63505;45.226;37.908;2023-05-10T13:31:25;18.29;54.24
74940;HTU21D;63505;45.226;37.908;2023-05-10T13:33:51;18.48;54.07
74940;HTU21D;63505;45.226;37.908;2023-05-10T13:36:17;18.68;53.78
74940;HTU21D;63505;45.226;37.908;2023-05-10T13:38:43;18.95;53.44
74940;HTU21D;63505;45.226;37.908;2023-05-10T13:41:08;19.16;53.23
74940;HTU21D;63505;45.226;37.908;2023-05-10T13:43:34;19.24;53.18
74940;HTU21D;63505;45.226;37.908;2023-05-10T13:46:01;19.37;53.36
74940;HTU21D;63505;45.226;37.908;2023-05-10T13:48:28;19.46;53.29
74940;HTU21D;63505;45.226;37.908;2023-05-10T13:50:54;19.51;53.31
74940;HTU21D;63505;45.226;37.908;2023-05-10T13:53:20;19.52;53.67
74940;HTU21D;63505;45.226;37.908;2023-05-10T13:55:46;19.61;53.99
74940;HTU21D;63505;45.226;37.908;2023-05-10T13:58:13;19.74;54.26
74940;HTU21D;63505;45.226;37.908;2023-05-10T14:00:38;19.80;54.05
74940;HTU21D;63505;45.226;37.908;2023-05-10T14:03:04;19.68;53.75
74940;HTU21D;63505;45.226;37.908;2023-05-10T14:05:31;19.57;54.26
74940;HTU21D;63505;45.226;37.908;2023-05-10T14:07:58;19.31;53.81
74940;HTU21D;63505;45.226;37.908;2023-05-10T14:10:23;19.17;54.10
74940;HTU21D;63505;45.226;37.908;2023-05-10T14:12:50;19.03;54.12
74940;HTU21D;63505;45.226;37.908;2023-05-10T14:15:16;18.93;54.29
74940;HTU21D;63505;45.226;37.908;2023-05-10T14:17:42;18.62;54.34
74940;HTU21D;63505;45.226;37.908;2023-05-10T14:20:08;18.22;54.33
74940;HTU21D;63505;45.226;37.908;2023-05-10T14:22:34;17.72;54.63
74940;HTU21D;63505;45.226;37.908;2023-05-10T14:25:00;17.46;54.81
74940;HTU21D;63505;45.226;37.908;2023-05-10T14:27:26;17.26;55.05
74940;HTU21D;63505;45.226;37.908;2023-05-10T14:29:52;17.00;55.13
74940;HTU21D;63505;45.226;37.908;2023-05-10T14:32:19;16.95;55.32
74940;HTU21D;63505;45.226;37.908;2023-05-10T14:34:45;16.76;55.00
74940;HTU21D;63505;45.226;37.908;2023-05-10T14:37:13;16.55;55.25
74940;HTU21D;63505;45.226;37.908;2023-05-10T14:39:39;16.30;55.58
74940;HTU21D;63505;45.226;37.908;2023-05-10T14:42:05;16.26;56.06
74940;HTU21D;63505;45.226;37.908;2023-05-10T14:44:31;16.33;56.46
74940;HTU21D;63505;45.226;37.908;2023-05-10T14:46:57;16.46;56.57
74940;HTU21D;63505;45.226;37.908;2023-05-10T14:49:22;16.55;56.57
74940;HTU21D;63505;45.226;37.908;2023-05-10T14:51:51;16.57;57.03
74940;HTU21D;63505;45.226;37.908;2023-05-10T14:54:17;16.72;57.60
74940;HTU21D;63505;45.226;37.908;2023-05-10T14:56:43;16.92;57.71
74940;HTU21D;63505;45.226;37.908;2023-05-10T14:59:09;17.04;57.55
74940;HTU21D;63505;45.226;37.908;2023-05-10T15:01:35;17.14;57.37
74940;HTU21D;63505;45.226;37.908;2023-05-10T15:04:03;17.21;57.21
74940;HTU21D;63505;45.226;37.908;2023-05-10T15:06:34;17.24;57.09
74940;HTU21D;63505;45.226;37.908;2023-05-10T15:09:01;17.24;57.12
74940;HTU21D;63505;45.226;37.908;2023-05-10T15:11:29;17.18;57.00
74940;HTU21D;63505;45.226;37.908;2023-05-10T15:13:55;17.07;56.94
74940;HTU21D;63505;45.226;37.908;2023-05-10T15:16:21;17.01;57.05
74940;HTU21D;63505;45.226;37.908;2023-05-10T15:18:47;16.91;57.00
74940;HTU21D;63505;45.226;37.908;2023-05-10T15:21:13;16.81;57.13
74940;HTU21D;63505;45.226;37.908;2023-05-10T15:23:39;16.70;57.05
74940;HTU21D;63505;45.226;37.908;2023-05-10T15:26:05;16.47;57.09
74940;HTU21D;63505;45.226;37.908;2023-05-10T15:28:31;16.34;57.18
74940;HTU21D;63505;45.226;37.908;2023-05-10T15:30:57;16.25;57.16
74940;HTU21D;63505;45.226;37.908;2023-05-10T15:33:23;16.14;57.33
74940;HTU21D;63505;45.226;37.908;2023-05-10T15:35:48;16.12;57.36
74940;HTU21D;63505;45.226;37.908;2023-05-10T15:38:14;16.00;57.48
74940;HTU21D;63505;45.226;37.908;2023-05-10T15:40:40;15.86;57.72
74940;HTU21D;63505;45.226;37.908;2023-05-10T15:43:06;15.73;57.99
74940;HTU21D;63505;45.226;37.908;2023-05-10T15:45:32;15.62;58.16